createdAt,value
2018-05-25T00:00:44.731Z,75.62
2018-05-25T00:03:12.481Z,75.50
2018-05-25T00:05:40.101Z,75.63
2018-05-25T00:08:07.709Z,75.77
2018-05-25T00:10:35.361Z,75.76
2018-05-25T00:13:02.992Z,75.64
2018-05-25T00:15:30.656Z,76.02
2018-05-25T00:17:58.261Z,76.22
2018-05-25T00:20:25.897Z,76.31
2018-05-25T00:22:53.521Z,76.26
2018-05-25T00:25:21.166Z,76.25
2018-05-25T00:27:48.760Z,76.01
2018-05-25T00:30:16.525Z,76.54
2018-05-25T00:32:44.130Z,76.95
2018-05-25T00:35:11.822Z,76.78
2018-05-25T00:37:39.452Z,76.59
2018-05-25T00:40:07.117Z,76.26
2018-05-25T00:42:34.792Z,75.86
2018-05-25T00:45:02.402Z,75.91
2018-05-25T00:47:30.073Z,76.03
2018-05-25T00:49:57.697Z,76.29
2018-05-25T00:52:25.317Z,76.61
2018-05-25T00:55:04.554Z,76.49
2018-05-25T00:57:32.215Z,76.53
2018-05-25T00:59:59.845Z,76.40
2018-05-25T01:02:27.477Z,76.35
2018-05-25T01:04:55.106Z,76.80
2018-05-25T01:07:22.747Z,76.78
2018-05-25T01:09:50.354Z,76.98
2018-05-25T01:12:18.001Z,76.96
2018-05-25T01:14:45.696Z,76.77
2018-05-25T01:17:13.343Z,76.81
2018-05-25T01:19:40.945Z,77.11
2018-05-25T01:22:08.586Z,77.50
2018-05-25T01:24:36.197Z,77.76
2018-05-25T01:27:03.977Z,77.97
2018-05-25T01:29:31.646Z,78.72
2018-05-25T01:31:59.277Z,78.72
2018-05-25T01:34:26.912Z,78.66
2018-05-25T01:36:54.528Z,78.94
2018-05-25T01:39:22.331Z,78.98
2018-05-25T01:41:49.940Z,79.10
2018-05-25T01:44:17.580Z,79.01
2018-05-25T01:46:45.193Z,79.15
2018-05-25T01:49:12.841Z,79.06
2018-05-25T01:51:40.516Z,79.28
2018-05-25T01:54:08.152Z,79.21
2018-05-25T01:56:35.809Z,79.71
2018-05-25T01:59:03.568Z,79.90
2018-05-25T02:01:31.214Z,80.26
2018-05-25T02:03:58.879Z,80.28
2018-05-25T02:06:26.597Z,80.28
2018-05-25T02:08:54.294Z,80.17
2018-05-25T02:11:21.968Z,80.13
2018-05-25T02:13:49.824Z,80.08
2018-05-25T02:16:18.930Z,80.40
2018-05-25T02:18:46.961Z,80.43
2018-05-25T02:21:15.380Z,80.43
2018-05-25T02:23:43.064Z,80.60
2018-05-25T02:26:14.556Z,80.73
2018-05-25T02:28:42.404Z,80.87
2018-05-25T02:31:10.392Z,80.80
2018-05-25T02:33:38.968Z,80.75
2018-05-25T02:36:06.785Z,80.64
2018-05-25T02:38:34.515Z,80.17
2018-05-25T02:41:02.100Z,80.07
2018-05-25T02:43:29.715Z,79.90
2018-05-25T02:45:57.393Z,79.93
2018-05-25T02:48:25.067Z,79.92
2018-05-25T02:50:52.720Z,79.82
2018-05-25T02:53:20.337Z,79.90
2018-05-25T02:55:47.990Z,80.11
2018-05-25T02:58:15.593Z,80.15
2018-05-25T03:00:43.226Z,80.12
2018-05-25T03:03:10.965Z,80.21
2018-05-25T03:05:38.605Z,80.30
2018-05-25T03:08:06.236Z,80.08
2018-05-25T03:10:33.919Z,80.09
2018-05-25T03:13:01.703Z,80.08
2018-05-25T03:15:29.507Z,79.87
2018-05-25T03:17:57.140Z,79.78
2018-05-25T03:20:24.751Z,79.93
2018-05-25T03:22:52.384Z,79.84
2018-05-25T03:25:19.985Z,79.76
2018-05-25T03:27:47.713Z,79.91
2018-05-25T03:30:15.316Z,80.05
2018-05-25T03:32:42.965Z,80.39
2018-05-25T03:35:10.563Z,80.55
2018-05-25T03:37:38.223Z,80.40
2018-05-25T03:40:06.022Z,80.92
2018-05-25T03:42:33.679Z,81.37
2018-05-25T03:45:01.284Z,81.43
2018-05-25T03:47:31.187Z,81.22
2018-05-25T03:49:58.848Z,81.21
2018-05-25T03:52:26.538Z,81.06
2018-05-25T03:54:54.186Z,80.92
2018-05-25T03:57:21.791Z,80.72
2018-05-25T04:00:01.036Z,81.19
2018-05-25T04:02:28.743Z,81.49
2018-05-25T04:04:56.397Z,81.36
2018-05-25T04:07:24.227Z,81.42
2018-05-25T04:09:51.922Z,81.60
2018-05-25T04:12:19.622Z,81.47
2018-05-25T04:14:47.265Z,81.72
2018-05-25T04:17:14.877Z,81.48
2018-05-25T04:19:42.516Z,81.26
2018-05-25T04:22:10.173Z,81.15
2018-05-25T04:24:37.870Z,81.43
2018-05-25T04:27:05.469Z,81.26
2018-05-25T04:29:33.133Z,81.12
2018-05-25T04:32:00.810Z,81.46
2018-05-25T04:34:28.568Z,81.66
2018-05-25T04:36:56.177Z,81.81
2018-05-25T04:39:24.201Z,81.68
2018-05-25T04:41:52.226Z,81.74
2018-05-25T04:44:22.346Z,81.79
2018-05-25T04:46:50.323Z,81.76
2018-05-25T04:49:19.417Z,81.46
2018-05-25T04:51:48.115Z,81.52
2018-05-25T04:54:15.800Z,81.39
2018-05-25T04:56:43.541Z,81.21
2018-05-25T04:59:11.448Z,81.14
2018-05-25T05:01:39.653Z,80.88
2018-05-25T05:04:09.339Z,81.04
2018-05-25T05:06:37.407Z,81.14
2018-05-25T05:09:12.271Z,81.51
2018-05-25T05:11:40.570Z,81.41
2018-05-25T05:14:08.335Z,81.22
2018-05-25T05:16:36.010Z,81.04
2018-05-25T05:19:03.816Z,80.99
2018-05-25T05:21:31.465Z,80.69
2018-05-25T05:23:59.120Z,80.62
2018-05-25T05:26:26.785Z,80.51
2018-05-25T05:28:54.420Z,80.22
2018-05-25T05:31:22.933Z,79.92
2018-05-25T05:33:52.694Z,79.95
2018-05-25T05:36:24.580Z,79.84
2018-05-25T05:41:45.773Z,79.76
2018-05-25T05:44:19.683Z,79.84
2018-05-25T05:46:48.096Z,79.71
2018-05-25T05:49:22.376Z,79.71
2018-05-25T05:51:52.598Z,79.85
2018-05-25T05:54:24.344Z,79.60
2018-05-25T05:56:54.344Z,79.10
2018-05-25T05:59:22.003Z,79.20
2018-05-25T06:01:49.811Z,79.44
2018-05-25T06:04:17.849Z,79.58
2018-05-25T06:06:45.801Z,79.56
2018-05-25T06:09:13.474Z,79.87
2018-05-25T06:11:41.123Z,79.48
2018-05-25T06:14:08.953Z,79.53
2018-05-25T06:16:36.598Z,79.65
2018-05-25T06:19:04.267Z,79.63
2018-05-25T06:21:31.898Z,80.11
2018-05-25T06:23:59.741Z,80.21
2018-05-25T06:26:30.542Z,80.14
2018-05-25T06:28:58.671Z,80.16
2018-05-25T06:31:26.391Z,80.49
2018-05-25T06:33:54.049Z,80.31
2018-05-25T06:36:21.722Z,80.37
2018-05-25T06:38:49.355Z,80.55
2018-05-25T06:41:18.114Z,80.61
2018-05-25T06:43:46.907Z,80.41
2018-05-25T06:46:20.433Z,80.16
2018-05-25T06:48:52.539Z,79.99
2018-05-25T06:51:23.652Z,79.96
2018-05-25T06:53:51.754Z,80.32
2018-05-25T06:56:22.215Z,80.08
2018-05-25T06:58:50.321Z,80.20
2018-05-25T07:01:21.170Z,80.47
2018-05-25T07:03:56.757Z,79.83
2018-05-25T07:06:24.964Z,79.70
2018-05-25T07:08:53.896Z,79.96
2018-05-25T07:11:21.846Z,79.88
2018-05-25T07:13:50.181Z,80.32
2018-05-25T07:16:17.976Z,80.19
2018-05-25T07:18:48.202Z,80.24
2018-05-25T07:21:16.241Z,80.56
2018-05-25T07:23:44.156Z,80.66
2018-05-25T07:26:12.155Z,80.26
2018-05-25T07:28:40.001Z,79.95
2018-05-25T07:31:08.568Z,79.95
2018-05-25T07:33:36.734Z,79.60
2018-05-25T07:36:05.502Z,79.89
2018-05-25T07:38:33.699Z,79.62
2018-05-25T07:41:01.617Z,79.50
2018-05-25T07:43:29.268Z,79.83
2018-05-25T07:45:56.902Z,79.43
2018-05-25T07:48:24.565Z,79.16
2018-05-25T07:50:52.304Z,79.69
2018-05-25T07:53:19.985Z,79.39
2018-05-25T07:55:47.589Z,79.31
2018-05-25T07:58:16.478Z,78.59
2018-05-25T08:00:44.387Z,78.09
2018-05-25T08:03:12.036Z,78.04
2018-05-25T08:05:39.787Z,77.13
2018-05-25T08:08:07.437Z,77.24
2018-05-25T08:10:35.332Z,76.75
2018-05-25T08:13:03.021Z,76.70
2018-05-25T08:15:30.639Z,76.52
2018-05-25T08:17:58.299Z,76.42
2018-05-25T08:20:26.003Z,76.29
2018-05-25T08:22:53.638Z,75.93
2018-05-25T08:25:21.279Z,76.06
2018-05-25T08:27:48.992Z,75.21
2018-05-25T08:30:16.656Z,75.43
2018-05-25T08:32:44.259Z,74.93
2018-05-25T08:35:11.919Z,74.45
2018-05-25T08:37:39.513Z,74.90
2018-05-25T08:40:07.138Z,74.16
2018-05-25T08:42:34.765Z,74.15
2018-05-25T08:45:02.462Z,73.24
2018-05-25T08:47:30.060Z,72.53
2018-05-25T08:49:57.704Z,72.91
2018-05-25T08:52:25.357Z,72.55
2018-05-25T08:54:52.989Z,71.89
2018-05-25T08:57:20.776Z,71.00
2018-05-25T08:59:48.430Z,69.96
2018-05-25T09:02:16.039Z,70.14
2018-05-25T09:04:43.749Z,69.34
2018-05-25T09:07:11.353Z,69.29
2018-05-25T09:09:38.998Z,69.15
2018-05-25T09:12:06.667Z,67.75
2018-05-25T09:14:34.312Z,67.80
2018-05-25T09:17:02.033Z,68.15
2018-05-25T09:19:29.670Z,67.00
2018-05-25T09:21:57.370Z,66.39
2018-05-25T09:24:24.916Z,65.91
2018-05-25T09:26:52.545Z,66.54
2018-05-25T09:29:20.209Z,65.87
2018-05-25T09:31:47.872Z,65.91
2018-05-25T09:34:15.497Z,65.90
2018-05-25T09:36:43.144Z,65.10
2018-05-25T09:39:10.780Z,64.95
2018-05-25T09:41:38.448Z,63.89
2018-05-25T09:44:06.042Z,64.25
2018-05-25T09:46:33.958Z,64.69
2018-05-25T09:49:01.597Z,64.39
2018-05-25T09:51:29.312Z,61.15
2018-05-25T09:53:56.917Z,62.25
2018-05-25T09:56:24.618Z,60.51
2018-05-25T09:58:52.225Z,60.93
2018-05-25T10:01:19.872Z,59.50
2018-05-25T10:03:47.496Z,58.83
2018-05-25T10:06:15.113Z,58.20
2018-05-25T10:08:42.758Z,58.90
2018-05-25T10:11:10.391Z,59.67
2018-05-25T10:13:38.056Z,59.68
2018-05-25T10:16:05.669Z,60.35
2018-05-25T10:18:33.386Z,61.24
2018-05-25T10:21:01.084Z,61.76
2018-05-25T10:23:28.726Z,60.79
2018-05-25T10:25:56.411Z,60.90
2018-05-25T10:28:24.058Z,59.48
2018-05-25T10:30:51.856Z,58.92
2018-05-25T10:33:19.512Z,58.59
2018-05-25T10:35:47.124Z,58.17
2018-05-25T10:38:14.758Z,57.17
2018-05-25T10:40:42.373Z,56.29
2018-05-25T10:43:10.128Z,56.51
2018-05-25T10:45:37.789Z,56.54
2018-05-25T10:48:05.465Z,56.52
2018-05-25T10:50:33.741Z,55.80
2018-05-25T10:53:01.485Z,55.46
2018-05-25T10:55:29.181Z,56.16
2018-05-25T10:57:56.794Z,57.43
2018-05-25T11:00:24.428Z,55.61
2018-05-25T11:02:52.050Z,54.56
2018-05-25T11:05:19.688Z,53.28
2018-05-25T11:07:47.328Z,53.57
2018-05-25T11:10:14.965Z,53.14
2018-05-25T11:12:42.576Z,52.82
2018-05-25T11:15:10.241Z,53.04
2018-05-25T11:17:37.929Z,52.43
2018-05-25T11:20:05.612Z,52.03
2018-05-25T11:22:33.206Z,52.51
2018-05-25T11:25:00.844Z,52.17
2018-05-25T11:27:28.458Z,51.97
2018-05-25T11:29:56.152Z,51.25
2018-05-25T11:32:23.774Z,51.06
2018-05-25T11:34:51.392Z,50.44
2018-05-25T11:37:19.027Z,51.41
2018-05-25T11:39:46.628Z,51.36
2018-05-25T11:42:14.393Z,50.42
2018-05-25T11:44:41.988Z,49.45
2018-05-25T11:47:09.649Z,49.29
2018-05-25T11:49:37.264Z,50.54
2018-05-25T11:52:04.905Z,50.78
2018-05-25T11:54:32.515Z,49.87
2018-05-25T11:57:00.145Z,49.21
2018-05-25T11:59:27.750Z,47.40
2018-05-25T12:01:55.394Z,47.18
2018-05-25T12:04:23.017Z,48.19
2018-05-25T12:06:50.664Z,48.93
2018-05-25T12:09:18.288Z,47.83
2018-05-25T12:11:45.960Z,48.13
2018-05-25T12:14:13.552Z,47.99
2018-05-25T12:16:41.173Z,48.93
2018-05-25T12:19:08.814Z,47.95
2018-05-25T12:21:36.575Z,47.46
2018-05-25T12:24:04.208Z,46.21
2018-05-25T12:26:31.825Z,45.75
2018-05-25T12:28:59.452Z,45.56
2018-05-25T12:31:27.057Z,45.58
2018-05-25T12:33:54.700Z,45.71
2018-05-25T12:36:22.302Z,45.70
2018-05-25T12:38:49.945Z,44.40
2018-05-25T12:41:17.573Z,44.95
2018-05-25T12:43:45.208Z,45.25
2018-05-25T12:46:12.819Z,45.56
2018-05-25T12:48:40.517Z,45.72
2018-05-25T12:51:08.117Z,45.06
2018-05-25T12:53:35.779Z,44.26
2018-05-25T12:56:03.389Z,43.82
2018-05-25T12:58:30.987Z,43.00
2018-05-25T13:00:58.683Z,43.31
2018-05-25T13:03:26.297Z,42.28
2018-05-25T13:05:53.946Z,43.29
2018-05-25T13:08:21.612Z,43.08
2018-05-25T13:10:49.259Z,42.83
2018-05-25T13:13:16.907Z,41.16
2018-05-25T13:15:44.541Z,41.56
2018-05-25T13:18:12.146Z,42.27
2018-05-25T13:20:39.905Z,41.33
2018-05-25T13:23:07.501Z,41.13
2018-05-25T13:25:35.239Z,41.34
2018-05-25T13:28:02.881Z,42.05
2018-05-25T13:30:30.495Z,41.76
2018-05-25T13:32:58.129Z,41.80
2018-05-25T13:35:25.783Z,42.41
2018-05-25T13:37:53.424Z,42.93
2018-05-25T13:40:21.115Z,43.00
2018-05-25T13:42:48.728Z,43.07
2018-05-25T13:45:16.464Z,42.25
2018-05-25T13:47:44.097Z,40.64
2018-05-25T13:50:11.712Z,39.74
2018-05-25T13:52:39.361Z,40.52
2018-05-25T13:55:06.962Z,42.10
2018-05-25T13:57:34.710Z,43.26
2018-05-25T14:00:02.328Z,43.61
2018-05-25T14:02:29.974Z,43.71
2018-05-25T14:04:57.564Z,42.08
2018-05-25T14:07:25.295Z,43.66
2018-05-25T14:09:52.901Z,43.30
2018-05-25T14:12:20.541Z,42.65
2018-05-25T14:14:48.233Z,43.34
2018-05-25T14:17:15.873Z,41.83
2018-05-25T14:19:43.528Z,41.34
2018-05-25T14:22:11.241Z,40.84
2018-05-25T14:24:38.849Z,40.22
2018-05-25T14:27:06.498Z,39.69
2018-05-25T14:29:34.149Z,39.66
2018-05-25T14:32:01.773Z,40.14
2018-05-25T14:34:29.420Z,39.55
2018-05-25T14:36:57.068Z,39.79
2018-05-25T14:39:24.698Z,39.59
2018-05-25T14:41:52.324Z,39.61
2018-05-25T14:44:19.957Z,40.50
2018-05-25T14:46:47.617Z,41.37
2018-05-25T14:49:15.281Z,40.28
2018-05-25T14:51:42.878Z,39.87
2018-05-25T14:54:10.869Z,38.49
2018-05-25T14:56:38.475Z,38.75
2018-05-25T14:59:06.239Z,37.94
2018-05-25T15:01:33.772Z,38.50
2018-05-25T15:04:01.394Z,39.16
2018-05-25T15:06:29.009Z,40.43
2018-05-25T15:08:56.641Z,41.96
2018-05-25T15:11:24.233Z,42.28
2018-05-25T15:13:51.873Z,41.21
2018-05-25T15:16:19.504Z,41.13
2018-05-25T15:18:47.155Z,40.93
2018-05-25T15:21:14.776Z,39.58
2018-05-25T15:23:42.413Z,38.82
2018-05-25T15:26:10.045Z,40.34
2018-05-25T15:28:37.801Z,40.22
2018-05-25T15:31:05.638Z,40.35
2018-05-25T15:33:33.122Z,40.40
2018-05-25T15:36:00.782Z,39.04
2018-05-25T15:38:28.489Z,38.77
2018-05-25T15:40:56.180Z,38.91
2018-05-25T15:43:23.783Z,38.96
2018-05-25T15:45:51.463Z,38.65
2018-05-25T15:48:19.051Z,37.09
2018-05-25T15:50:46.808Z,38.14
2018-05-25T15:53:14.414Z,38.70
2018-05-25T15:55:42.043Z,37.35
2018-05-25T15:58:09.707Z,37.04
2018-05-25T16:00:37.398Z,37.34
2018-05-25T16:03:05.015Z,37.71
2018-05-25T16:05:32.685Z,37.10
2018-05-25T16:08:00.277Z,37.85
2018-05-25T16:10:27.901Z,37.34
2018-05-25T16:12:55.520Z,37.52
2018-05-25T16:15:23.160Z,38.41
2018-05-25T16:17:50.754Z,38.89
2018-05-25T16:20:18.395Z,37.99
2018-05-25T16:22:46.003Z,38.85
2018-05-25T16:25:13.637Z,38.19
2018-05-25T16:27:41.245Z,36.18
2018-05-25T16:30:08.892Z,36.61
2018-05-25T16:32:36.540Z,35.86
2018-05-25T16:35:04.158Z,35.97
2018-05-25T16:37:31.824Z,37.97
2018-05-25T16:39:59.454Z,38.63
2018-05-25T16:42:27.135Z,37.74
2018-05-25T16:44:54.741Z,37.20
2018-05-25T16:47:22.388Z,37.90
2018-05-25T16:49:50.066Z,38.17
2018-05-25T16:52:17.712Z,38.08
2018-05-25T16:54:45.382Z,37.57
2018-05-25T16:57:13.063Z,38.62
2018-05-25T16:59:40.702Z,38.52
2018-05-25T17:02:08.402Z,39.27
2018-05-25T17:04:36.037Z,39.53
2018-05-25T17:07:03.666Z,39.63
2018-05-25T17:09:31.274Z,39.30
2018-05-25T17:11:58.871Z,40.03
2018-05-25T17:14:26.524Z,40.85
2018-05-25T17:16:54.132Z,42.12
2018-05-25T17:19:21.821Z,43.11
2018-05-25T17:21:49.436Z,43.96
2018-05-25T17:24:17.173Z,44.73
2018-05-25T17:26:44.829Z,45.75
2018-05-25T17:29:12.464Z,46.25
2018-05-25T17:31:40.088Z,45.76
2018-05-25T17:34:07.733Z,45.50
2018-05-25T17:36:35.324Z,45.44
2018-05-25T17:39:02.997Z,44.78
2018-05-25T17:41:30.609Z,44.91
2018-05-25T17:43:58.290Z,46.02
2018-05-25T17:46:25.900Z,46.52
2018-05-25T17:48:53.597Z,47.14
2018-05-25T17:51:21.292Z,47.78
2018-05-25T17:53:48.912Z,48.10
2018-05-25T17:56:16.572Z,48.67
2018-05-25T17:58:44.160Z,48.70
2018-05-25T18:01:11.825Z,49.08
2018-05-25T18:03:39.606Z,48.96
2018-05-25T18:06:07.250Z,48.99
2018-05-25T18:08:34.866Z,49.27
2018-05-25T18:11:02.524Z,48.56
2018-05-25T18:13:30.138Z,48.51
2018-05-25T18:15:57.774Z,49.07
2018-05-25T18:18:25.378Z,49.09
2018-05-25T18:20:53.033Z,49.28
2018-05-25T18:23:20.644Z,49.33
2018-05-25T18:25:48.377Z,49.71
2018-05-25T18:28:15.986Z,49.83
2018-05-25T18:30:43.631Z,49.89
2018-05-25T18:33:11.292Z,50.05
2018-05-25T18:35:38.956Z,50.32
2018-05-25T18:38:06.598Z,51.27
2018-05-25T18:40:34.228Z,52.03
2018-05-25T18:43:01.885Z,52.12
2018-05-25T18:45:29.481Z,52.97
2018-05-25T18:47:57.119Z,51.92
2018-05-25T18:50:24.739Z,52.17
2018-05-25T18:52:52.375Z,52.25
2018-05-25T18:55:19.973Z,51.97
2018-05-25T18:57:47.626Z,52.65
2018-05-25T19:00:15.236Z,52.94
2018-05-25T19:02:42.884Z,52.95
2018-05-25T19:05:10.507Z,52.29
2018-05-25T19:07:38.155Z,53.32
2018-05-25T19:10:05.770Z,53.81
2018-05-25T19:12:33.413Z,53.53
2018-05-25T19:15:01.032Z,54.40
2018-05-25T19:17:28.769Z,54.43
2018-05-25T19:19:56.439Z,54.13
2018-05-25T19:22:24.032Z,54.82
2018-05-25T19:24:51.638Z,55.06
2018-05-25T19:27:19.409Z,55.36
2018-05-25T19:29:47.024Z,55.86
2018-05-25T19:32:14.620Z,55.75
2018-05-25T19:34:42.265Z,56.00
2018-05-25T19:37:09.877Z,56.55
2018-05-25T19:39:37.525Z,56.52
2018-05-25T19:42:05.133Z,56.57
2018-05-25T19:44:32.789Z,56.59
2018-05-25T19:47:00.410Z,56.67
2018-05-25T19:49:28.187Z,56.81
2018-05-25T19:51:55.785Z,57.15
2018-05-25T19:54:24.170Z,57.33
2018-05-25T19:56:51.785Z,57.53
2018-05-25T19:59:19.545Z,57.17
2018-05-25T20:01:47.153Z,57.37
2018-05-25T20:04:14.795Z,57.39
2018-05-25T20:06:42.482Z,58.02
2018-05-25T20:09:10.130Z,59.13
2018-05-25T20:11:37.772Z,58.91
2018-05-25T20:14:05.381Z,59.29
2018-05-25T20:16:33.055Z,59.07
2018-05-25T20:19:00.704Z,59.17
2018-05-25T20:21:28.354Z,59.24
2018-05-25T20:23:56.127Z,59.28
2018-05-25T20:26:23.788Z,59.56
2018-05-25T20:28:51.424Z,59.60
2018-05-25T20:31:19.063Z,59.62
2018-05-25T20:33:46.665Z,59.74
2018-05-25T20:36:14.290Z,59.94
2018-05-25T20:38:41.897Z,59.74
2018-05-25T20:41:09.551Z,59.50
2018-05-25T20:43:37.171Z,59.95
2018-05-25T20:46:04.821Z,59.96
2018-05-25T20:48:32.543Z,59.80
2018-05-25T20:51:00.138Z,59.77
2018-05-25T20:53:27.785Z,59.71
2018-05-25T20:55:55.505Z,59.74
2018-05-25T20:58:23.143Z,60.11
2018-05-25T21:00:50.739Z,60.48
2018-05-25T21:03:18.402Z,60.28
2018-05-25T21:05:46.015Z,59.99
2018-05-25T21:08:13.778Z,59.91
2018-05-25T21:10:41.383Z,59.91
2018-05-25T21:13:09.014Z,60.08
2018-05-25T21:15:36.612Z,59.78
2018-05-25T21:18:04.299Z,60.33
2018-05-25T21:20:31.912Z,60.02
2018-05-25T21:22:59.603Z,60.27
2018-05-25T21:25:27.207Z,60.14
2018-05-25T21:27:54.869Z,60.15
2018-05-25T21:30:22.509Z,60.36
2018-05-25T21:32:50.163Z,60.45
2018-05-25T21:35:17.777Z,60.18
2018-05-25T21:37:46.231Z,59.90
2018-05-25T21:40:13.949Z,60.15
2018-05-25T21:42:41.680Z,60.18
2018-05-25T21:45:09.282Z,60.24
2018-05-25T21:47:36.935Z,60.69
2018-05-25T21:50:04.557Z,60.83
2018-05-25T21:52:32.226Z,60.75
2018-05-25T21:54:59.884Z,60.91
2018-05-25T21:57:27.540Z,61.06
2018-05-25T21:59:55.178Z,61.14
2018-05-25T22:02:22.825Z,61.31
2018-05-25T22:04:50.509Z,61.71
2018-05-25T22:07:18.245Z,61.92
2018-05-25T22:09:45.864Z,62.12
2018-05-25T22:12:13.460Z,62.29
2018-05-25T22:14:41.118Z,62.66
2018-05-25T22:17:08.825Z,62.98
2018-05-25T22:19:36.474Z,63.26
2018-05-25T22:22:04.085Z,63.55
2018-05-25T22:24:31.729Z,63.53
2018-05-25T22:26:59.337Z,63.34
2018-05-25T22:29:26.992Z,63.31
2018-05-25T22:31:54.609Z,63.32
2018-05-25T22:34:22.275Z,63.50
2018-05-25T22:36:49.893Z,63.79
2018-05-25T22:39:17.543Z,63.65
2018-05-25T22:41:55.716Z,63.80
2018-05-25T22:44:35.149Z,63.83
2018-05-25T22:47:14.577Z,63.92
2018-05-25T22:49:53.969Z,64.09
2018-05-25T22:52:26.572Z,64.57
2018-05-25T22:54:57.098Z,64.61
2018-05-25T22:57:24.819Z,64.66
2018-05-25T22:59:52.478Z,64.97
2018-05-25T23:02:20.152Z,65.04
2018-05-25T23:04:47.760Z,65.28
2018-05-25T23:07:15.408Z,65.45
2018-05-25T23:09:43.043Z,65.49
2018-05-25T23:12:10.669Z,65.87
2018-05-25T23:14:38.367Z,65.88
2018-05-25T23:17:06.001Z,65.75
2018-05-25T23:19:33.615Z,65.66
2018-05-25T23:22:01.249Z,65.60
2018-05-25T23:24:28.883Z,65.39
2018-05-25T23:26:56.520Z,65.21
2018-05-25T23:29:24.155Z,65.24
2018-05-25T23:31:51.802Z,65.60
2018-05-25T23:34:19.410Z,66.17
2018-05-25T23:36:47.026Z,67.37
2018-05-25T23:39:14.658Z,67.93
2018-05-25T23:41:42.330Z,68.46
2018-05-25T23:44:09.948Z,68.51
2018-05-25T23:46:37.644Z,68.67
2018-05-25T23:49:05.273Z,69.00
2018-05-25T23:51:32.881Z,69.06
2018-05-25T23:54:00.653Z,69.02
2018-05-25T23:56:28.261Z,68.82
2018-05-25T23:58:55.883Z,68.51
